sensor_id;sensor_type;location;lat;lon;timestamp;P1;durP1;ratioP1;P2;durP2;ratioP2
22955;SDS011;40888;48.148;11.526;2022-12-26T00:01:43;1.60;;;1.50;;
22955;SDS011;40888;48.148;11.526;2022-12-26T00:04:10;1.80;;;1.70;;
22955;SDS011;40888;48.148;11.526;2022-12-26T00:06:36;4.87;;;1.70;;
22955;SDS011;40888;48.148;11.526;2022-12-26T00:09:03;1.50;;;1.40;;
22955;SDS011;40888;48.148;11.526;2022-12-26T00:11:30;1.93;;;1.83;;
22955;SDS011;40888;48.148;11.526;2022-12-26T00:13:57;2.20;;;2.00;;
22955;SDS011;40888;48.148;11.526;2022-12-26T00:16:24;2.10;;;1.97;;
22955;SDS011;40888;48.148;11.526;2022-12-26T00:18:51;1.60;;;1.50;;
22955;SDS011;40888;48.148;11.526;2022-12-26T00:21:17;1.87;;;1.53;;
22955;SDS011;40888;48.148;11.526;2022-12-26T00:23:44;1.53;;;1.43;;
22955;SDS011;40888;48.148;11.526;2022-12-26T00:26:11;1.40;;;1.33;;
22955;SDS011;40888;48.148;11.526;2022-12-26T00:28:37;1.57;;;1.47;;
22955;SDS011;40888;48.148;11.526;2022-12-26T00:31:04;1.57;;;1.47;;
22955;SDS011;40888;48.148;11.526;2022-12-26T00:33:30;1.43;;;1.33;;
22955;SDS011;40888;48.148;11.526;2022-12-26T00:35:59;1.67;;;1.33;;
22955;SDS011;40888;48.148;11.526;2022-12-26T00:38:26;1.53;;;1.43;;
22955;SDS011;40888;48.148;11.526;2022-12-26T00:40:52;1.60;;;1.50;;
22955;SDS011;40888;48.148;11.526;2022-12-26T00:43:18;1.87;;;1.77;;
22955;SDS011;40888;48.148;11.526;2022-12-26T00:45:46;1.47;;;1.37;;
22955;SDS011;40888;48.148;11.526;2022-12-26T00:48:12;1.77;;;1.67;;
22955;SDS011;40888;48.148;11.526;2022-12-26T00:50:38;1.60;;;1.50;;
22955;SDS011;40888;48.148;11.526;2022-12-26T00:53:04;1.77;;;1.67;;
22955;SDS011;40888;48.148;11.526;2022-12-26T00:55:31;2.70;;;1.60;;
22955;SDS011;40888;48.148;11.526;2022-12-26T00:57:57;1.90;;;1.70;;
22955;SDS011;40888;48.148;11.526;2022-12-26T01:00:23;1.60;;;1.50;;
22955;SDS011;40888;48.148;11.526;2022-12-26T01:02:49;1.43;;;1.33;;
22955;SDS011;40888;48.148;11.526;2022-12-26T01:05:15;1.80;;;1.70;;
22955;SDS011;40888;48.148;11.526;2022-12-26T01:07:42;2.60;;;1.93;;
22955;SDS011;40888;48.148;11.526;2022-12-26T01:10:09;1.80;;;1.70;;
22955;SDS011;40888;48.148;11.526;2022-12-26T01:12:36;1.70;;;1.53;;
22955;SDS011;40888;48.148;11.526;2022-12-26T01:15:02;1.70;;;1.60;;
22955;SDS011;40888;48.148;11.526;2022-12-26T01:17:29;1.70;;;1.60;;
22955;SDS011;40888;48.148;11.526;2022-12-26T01:19:55;1.50;;;1.40;;
22955;SDS011;40888;48.148;11.526;2022-12-26T01:22:22;1.67;;;1.50;;
22955;SDS011;40888;48.148;11.526;2022-12-26T01:24:48;1.90;;;1.80;;
22955;SDS011;40888;48.148;11.526;2022-12-26T01:27:14;1.60;;;1.50;;
22955;SDS011;40888;48.148;11.526;2022-12-26T01:29:40;2.17;;;1.80;;
22955;SDS011;40888;48.148;11.526;2022-12-26T01:32:06;2.60;;;1.70;;
22955;SDS011;40888;48.148;11.526;2022-12-26T01:34:32;1.40;;;1.30;;
22955;SDS011;40888;48.148;11.526;2022-12-26T01:36:58;2.37;;;1.50;;
22955;SDS011;40888;48.148;11.526;2022-12-26T01:39:25;2.63;;;2.40;;
22955;SDS011;40888;48.148;11.526;2022-12-26T01:41:51;1.70;;;1.60;;
22955;SDS011;40888;48.148;11.526;2022-12-26T01:47:02;2.53;;;2.13;;
22955;SDS011;40888;48.148;11.526;2022-12-26T01:51:56;1.67;;;1.57;;
22955;SDS011;40888;48.148;11.526;2022-12-26T01:54:24;1.80;;;1.70;;
22955;SDS011;40888;48.148;11.526;2022-12-26T01:56:52;1.63;;;1.53;;
22955;SDS011;40888;48.148;11.526;2022-12-26T01:59:23;2.30;;;1.70;;
22955;SDS011;40888;48.148;11.526;2022-12-26T02:01:51;1.67;;;1.57;;
22955;SDS011;40888;48.148;11.526;2022-12-26T02:04:19;1.60;;;1.50;;
22955;SDS011;40888;48.148;11.526;2022-12-26T02:07:05;1.73;;;1.60;;
22955;SDS011;40888;48.148;11.526;2022-12-26T02:09:31;1.53;;;1.43;;
22955;SDS011;40888;48.148;11.526;2022-12-26T02:12:00;1.40;;;1.30;;
22955;SDS011;40888;48.148;11.526;2022-12-26T02:14:27;1.77;;;1.50;;
22955;SDS011;40888;48.148;11.526;2022-12-26T02:16:53;1.80;;;1.70;;
22955;SDS011;40888;48.148;11.526;2022-12-26T02:19:44;1.33;;;1.23;;
22955;SDS011;40888;48.148;11.526;2022-12-26T02:22:16;4.60;;;1.70;;
22955;SDS011;40888;48.148;11.526;2022-12-26T02:27:41;1.00;;;1.00;;
22955;SDS011;40888;48.148;11.526;2022-12-26T02:33:04;1.40;;;1.30;;
22955;SDS011;40888;48.148;11.526;2022-12-26T02:36:39;1.30;;;1.20;;
22955;SDS011;40888;48.148;11.526;2022-12-26T02:38:34;1.40;;;1.30;;
22955;SDS011;40888;48.148;11.526;2022-12-26T02:41:11;1.43;;;1.33;;
22955;SDS011;40888;48.148;11.526;2022-12-26T02:43:47;1.40;;;1.30;;
22955;SDS011;40888;48.148;11.526;2022-12-26T02:51:50;1.60;;;1.37;;
22955;SDS011;40888;48.148;11.526;2022-12-26T02:54:42;1.37;;;1.27;;
22955;SDS011;40888;48.148;11.526;2022-12-26T02:57:33;1.47;;;1.37;;
22955;SDS011;40888;48.148;11.526;2022-12-26T03:00:19;1.40;;;1.30;;
22955;SDS011;40888;48.148;11.526;2022-12-26T03:03:06;1.37;;;1.03;;
22955;SDS011;40888;48.148;11.526;2022-12-26T03:05:54;1.40;;;1.30;;
22955;SDS011;40888;48.148;11.526;2022-12-26T03:08:42;1.30;;;1.20;;
22955;SDS011;40888;48.148;11.526;2022-12-26T03:11:29;1.90;;;1.23;;
22955;SDS011;40888;48.148;11.526;2022-12-26T03:14:20;1.17;;;1.13;;
22955;SDS011;40888;48.148;11.526;2022-12-26T03:16:49;1.03;;;1.03;;
22955;SDS011;40888;48.148;11.526;2022-12-26T03:19:36;1.20;;;1.10;;
22955;SDS011;40888;48.148;11.526;2022-12-26T03:22:41;1.50;;;1.40;;
22955;SDS011;40888;48.148;11.526;2022-12-26T03:25:13;1.27;;;1.17;;
22955;SDS011;40888;48.148;11.526;2022-12-26T03:28:01;0.97;;;0.97;;
22955;SDS011;40888;48.148;11.526;2022-12-26T03:30:27;1.00;;;1.00;;
22955;SDS011;40888;48.148;11.526;2022-12-26T03:33:12;1.03;;;0.97;;
22955;SDS011;40888;48.148;11.526;2022-12-26T03:35:57;1.50;;;1.10;;
22955;SDS011;40888;48.148;11.526;2022-12-26T03:38:25;0.77;;;0.77;;
22955;SDS011;40888;48.148;11.526;2022-12-26T03:41:06;1.10;;;1.00;;
22955;SDS011;40888;48.148;11.526;2022-12-26T03:44:05;1.37;;;0.87;;
22955;SDS011;40888;48.148;11.526;2022-12-26T03:47:16;1.07;;;1.00;;
22955;SDS011;40888;48.148;11.526;2022-12-26T03:50:06;1.00;;;0.90;;
22955;SDS011;40888;48.148;11.526;2022-12-26T03:53:11;2.97;;;1.20;;
22955;SDS011;40888;48.148;11.526;2022-12-26T03:59:01;1.10;;;1.00;;
22955;SDS011;40888;48.148;11.526;2022-12-26T04:01:48;1.77;;;1.00;;
22955;SDS011;40888;48.148;11.526;2022-12-26T04:04:35;2.60;;;1.00;;
22955;SDS011;40888;48.148;11.526;2022-12-26T04:07:25;1.30;;;1.20;;
22955;SDS011;40888;48.148;11.526;2022-12-26T04:10:13;0.93;;;0.93;;
22955;SDS011;40888;48.148;11.526;2022-12-26T04:13:00;1.20;;;1.10;;
22955;SDS011;40888;48.148;11.526;2022-12-26T04:15:47;1.10;;;1.00;;
22955;SDS011;40888;48.148;11.526;2022-12-26T04:18:35;0.70;;;0.70;;
22955;SDS011;40888;48.148;11.526;2022-12-26T04:21:26;1.33;;;1.00;;
22955;SDS011;40888;48.148;11.526;2022-12-26T04:24:21;2.17;;;1.40;;
22955;SDS011;40888;48.148;11.526;2022-12-26T04:27:07;1.90;;;1.07;;
22955;SDS011;40888;48.148;11.526;2022-12-26T04:29:53;0.87;;;0.87;;
22955;SDS011;40888;48.148;11.526;2022-12-26T04:32:44;1.00;;;0.90;;
22955;SDS011;40888;48.148;11.526;2022-12-26T04:35:31;1.30;;;1.17;;
22955;SDS011;40888;48.148;11.526;2022-12-26T04:38:19;1.97;;;1.20;;
22955;SDS011;40888;48.148;11.526;2022-12-26T04:41:05;0.63;;;0.63;;
22955;SDS011;40888;48.148;11.526;2022-12-26T04:43:51;1.80;;;1.07;;
22955;SDS011;40888;48.148;11.526;2022-12-26T04:46:28;1.10;;;1.00;;
22955;SDS011;40888;48.148;11.526;2022-12-26T04:48:55;1.23;;;1.13;;
22955;SDS011;40888;48.148;11.526;2022-12-26T04:51:40;0.77;;;0.77;;
22955;SDS011;40888;48.148;11.526;2022-12-26T04:54:07;1.30;;;1.20;;
22955;SDS011;40888;48.148;11.526;2022-12-26T04:56:33;1.10;;;1.00;;
22955;SDS011;40888;48.148;11.526;2022-12-26T04:58:59;1.30;;;1.20;;
22955;SDS011;40888;48.148;11.526;2022-12-26T05:01:25;0.90;;;0.90;;
22955;SDS011;40888;48.148;11.526;2022-12-26T05:04:13;0.90;;;0.90;;
22955;SDS011;40888;48.148;11.526;2022-12-26T05:06:59;1.30;;;1.20;;
22955;SDS011;40888;48.148;11.526;2022-12-26T05:09:44;1.40;;;1.30;;
22955;SDS011;40888;48.148;11.526;2022-12-26T05:12:13;1.80;;;1.70;;
22955;SDS011;40888;48.148;11.526;2022-12-26T05:14:39;1.60;;;1.50;;
22955;SDS011;40888;48.148;11.526;2022-12-26T05:17:05;1.30;;;1.20;;
22955;SDS011;40888;48.148;11.526;2022-12-26T05:19:50;1.50;;;1.40;;
22955;SDS011;40888;48.148;11.526;2022-12-26T05:22:39;1.87;;;1.00;;
22955;SDS011;40888;48.148;11.526;2022-12-26T05:25:28;1.30;;;1.20;;
22955;SDS011;40888;48.148;11.526;2022-12-26T05:28:14;1.30;;;1.20;;
22955;SDS011;40888;48.148;11.526;2022-12-26T05:30:59;1.20;;;1.13;;
22955;SDS011;40888;48.148;11.526;2022-12-26T05:33:26;1.37;;;1.27;;
22955;SDS011;40888;48.148;11.526;2022-12-26T05:36:11;1.60;;;1.50;;
22955;SDS011;40888;48.148;11.526;2022-12-26T05:38:37;1.60;;;1.50;;
22955;SDS011;40888;48.148;11.526;2022-12-26T05:41:04;1.13;;;1.13;;
22955;SDS011;40888;48.148;11.526;2022-12-26T05:43:30;1.50;;;1.40;;
22955;SDS011;40888;48.148;11.526;2022-12-26T05:45:56;1.83;;;1.30;;
22955;SDS011;40888;48.148;11.526;2022-12-26T05:48:22;1.53;;;1.40;;
22955;SDS011;40888;48.148;11.526;2022-12-26T05:50:48;1.30;;;1.10;;
22955;SDS011;40888;48.148;11.526;2022-12-26T05:53:14;4.37;;;1.10;;
22955;SDS011;40888;48.148;11.526;2022-12-26T05:55:41;2.07;;;1.13;;
22955;SDS011;40888;48.148;11.526;2022-12-26T05:58:07;1.70;;;1.33;;
22955;SDS011;40888;48.148;11.526;2022-12-26T06:00:33;1.33;;;1.27;;
22955;SDS011;40888;48.148;11.526;2022-12-26T06:02:59;1.37;;;1.27;;
22955;SDS011;40888;48.148;11.526;2022-12-26T06:05:26;1.33;;;1.23;;
22955;SDS011;40888;48.148;11.526;2022-12-26T06:07:52;1.60;;;1.50;;
22955;SDS011;40888;48.148;11.526;2022-12-26T06:10:19;1.10;;;1.10;;
22955;SDS011;40888;48.148;11.526;2022-12-26T06:12:45;1.33;;;1.23;;
22955;SDS011;40888;48.148;11.526;2022-12-26T06:15:11;2.40;;;1.20;;
22955;SDS011;40888;48.148;11.526;2022-12-26T06:17:37;1.30;;;1.20;;
22955;SDS011;40888;48.148;11.526;2022-12-26T06:20:04;1.30;;;1.20;;
22955;SDS011;40888;48.148;11.526;2022-12-26T06:22:30;1.40;;;1.27;;
22955;SDS011;40888;48.148;11.526;2022-12-26T06:24:56;1.43;;;1.30;;
22955;SDS011;40888;48.148;11.526;2022-12-26T06:27:23;1.33;;;1.23;;
22955;SDS011;40888;48.148;11.526;2022-12-26T06:29:49;1.40;;;1.30;;
22955;SDS011;40888;48.148;11.526;2022-12-26T06:32:15;1.70;;;1.20;;
22955;SDS011;40888;48.148;11.526;2022-12-26T06:34:41;2.30;;;1.60;;
22955;SDS011;40888;48.148;11.526;2022-12-26T06:37:07;1.77;;;1.67;;
22955;SDS011;40888;48.148;11.526;2022-12-26T06:39:33;1.70;;;1.47;;
22955;SDS011;40888;48.148;11.526;2022-12-26T06:41:59;1.57;;;1.47;;
22955;SDS011;40888;48.148;11.526;2022-12-26T06:44:25;1.57;;;1.40;;
22955;SDS011;40888;48.148;11.526;2022-12-26T06:46:51;1.60;;;1.50;;
22955;SDS011;40888;48.148;11.526;2022-12-26T06:49:18;1.63;;;1.50;;
22955;SDS011;40888;48.148;11.526;2022-12-26T06:51:44;1.97;;;1.77;;
22955;SDS011;40888;48.148;11.526;2022-12-26T06:54:10;1.43;;;1.33;;
22955;SDS011;40888;48.148;11.526;2022-12-26T06:56:36;1.70;;;1.60;;
22955;SDS011;40888;48.148;11.526;2022-12-26T06:59:03;3.00;;;1.67;;
22955;SDS011;40888;48.148;11.526;2022-12-26T07:01:30;1.70;;;1.60;;
22955;SDS011;40888;48.148;11.526;2022-12-26T07:03:56;1.80;;;1.70;;
22955;SDS011;40888;48.148;11.526;2022-12-26T07:06:24;1.93;;;1.60;;
22955;SDS011;40888;48.148;11.526;2022-12-26T07:08:51;1.93;;;1.77;;
22955;SDS011;40888;48.148;11.526;2022-12-26T07:11:19;1.77;;;1.63;;
22955;SDS011;40888;48.148;11.526;2022-12-26T07:13:45;1.80;;;1.53;;
22955;SDS011;40888;48.148;11.526;2022-12-26T07:16:11;1.50;;;1.40;;
22955;SDS011;40888;48.148;11.526;2022-12-26T07:18:37;1.50;;;1.40;;
22955;SDS011;40888;48.148;11.526;2022-12-26T07:21:08;1.43;;;1.33;;
22955;SDS011;40888;48.148;11.526;2022-12-26T07:23:34;2.10;;;1.70;;
22955;SDS011;40888;48.148;11.526;2022-12-26T07:26:00;1.63;;;1.53;;
22955;SDS011;40888;48.148;11.526;2022-12-26T07:28:27;1.80;;;1.33;;
22955;SDS011;40888;48.148;11.526;2022-12-26T07:30:53;1.53;;;1.43;;
22955;SDS011;40888;48.148;11.526;2022-12-26T07:33:19;1.27;;;1.17;;
22955;SDS011;40888;48.148;11.526;2022-12-26T07:35:46;1.30;;;1.20;;
22955;SDS011;40888;48.148;11.526;2022-12-26T07:38:12;1.47;;;1.37;;
22955;SDS011;40888;48.148;11.526;2022-12-26T07:40:38;1.50;;;1.40;;
22955;SDS011;40888;48.148;11.526;2022-12-26T07:43:05;1.50;;;1.40;;
22955;SDS011;40888;48.148;11.526;2022-12-26T07:45:31;1.50;;;1.40;;
22955;SDS011;40888;48.148;11.526;2022-12-26T07:47:57;1.50;;;1.30;;
22955;SDS011;40888;48.148;11.526;2022-12-26T07:50:24;1.60;;;1.40;;
22955;SDS011;40888;48.148;11.526;2022-12-26T07:52:51;1.50;;;1.40;;
22955;SDS011;40888;48.148;11.526;2022-12-26T07:55:17;1.53;;;1.43;;
22955;SDS011;40888;48.148;11.526;2022-12-26T07:57:43;1.63;;;1.53;;
22955;SDS011;40888;48.148;11.526;2022-12-26T08:00:09;2.10;;;1.40;;
22955;SDS011;40888;48.148;11.526;2022-12-26T08:02:35;2.37;;;1.37;;
22955;SDS011;40888;48.148;11.526;2022-12-26T08:05:02;2.53;;;1.53;;
22955;SDS011;40888;48.148;11.526;2022-12-26T08:07:28;1.47;;;1.37;;
22955;SDS011;40888;48.148;11.526;2022-12-26T08:09:54;2.23;;;1.50;;
22955;SDS011;40888;48.148;11.526;2022-12-26T08:12:20;4.33;;;2.20;;
22955;SDS011;40888;48.148;11.526;2022-12-26T08:14:48;1.77;;;1.50;;
22955;SDS011;40888;48.148;11.526;2022-12-26T08:17:15;1.73;;;1.63;;
22955;SDS011;40888;48.148;11.526;2022-12-26T08:19:41;1.50;;;1.40;;
22955;SDS011;40888;48.148;11.526;2022-12-26T08:22:07;1.83;;;1.63;;
22955;SDS011;40888;48.148;11.526;2022-12-26T08:24:33;3.13;;;1.90;;
22955;SDS011;40888;48.148;11.526;2022-12-26T08:26:59;1.63;;;1.53;;
22955;SDS011;40888;48.148;11.526;2022-12-26T08:29:25;1.90;;;1.70;;
22955;SDS011;40888;48.148;11.526;2022-12-26T08:31:52;1.60;;;1.50;;
22955;SDS011;40888;48.148;11.526;2022-12-26T08:34:18;2.10;;;1.70;;
22955;SDS011;40888;48.148;11.526;2022-12-26T08:36:44;3.33;;;1.47;;
22955;SDS011;40888;48.148;11.526;2022-12-26T08:39:10;1.60;;;1.50;;
22955;SDS011;40888;48.148;11.526;2022-12-26T08:41:36;1.63;;;1.53;;
22955;SDS011;40888;48.148;11.526;2022-12-26T08:44:03;1.37;;;1.27;;
22955;SDS011;40888;48.148;11.526;2022-12-26T08:46:29;1.60;;;1.50;;
22955;SDS011;40888;48.148;11.526;2022-12-26T08:48:55;1.47;;;1.37;;
22955;SDS011;40888;48.148;11.526;2022-12-26T08:51:22;2.27;;;1.83;;
22955;SDS011;40888;48.148;11.526;2022-12-26T08:53:49;1.53;;;1.43;;
22955;SDS011;40888;48.148;11.526;2022-12-26T08:56:16;1.90;;;1.70;;
22955;SDS011;40888;48.148;11.526;2022-12-26T08:58:43;2.70;;;1.93;;
22955;SDS011;40888;48.148;11.526;2022-12-26T09:01:10;1.83;;;1.73;;
22955;SDS011;40888;48.148;11.526;2022-12-26T09:03:37;1.97;;;1.57;;
22955;SDS011;40888;48.148;11.526;2022-12-26T09:06:03;1.60;;;1.50;;
22955;SDS011;40888;48.148;11.526;2022-12-26T09:08:30;1.67;;;1.10;;
22955;SDS011;40888;48.148;11.526;2022-12-26T09:11:18;1.50;;;1.40;;
22955;SDS011;40888;48.148;11.526;2022-12-26T09:13:44;1.33;;;1.23;;
22955;SDS011;40888;48.148;11.526;2022-12-26T09:16:14;1.57;;;1.43;;
22955;SDS011;40888;48.148;11.526;2022-12-26T09:18:41;1.87;;;1.30;;
22955;SDS011;40888;48.148;11.526;2022-12-26T09:21:08;1.30;;;1.20;;
22955;SDS011;40888;48.148;11.526;2022-12-26T09:23:35;1.33;;;1.23;;
22955;SDS011;40888;48.148;11.526;2022-12-26T09:26:02;2.10;;;1.40;;
22955;SDS011;40888;48.148;11.526;2022-12-26T09:28:29;0.80;;;0.80;;
22955;SDS011;40888;48.148;11.526;2022-12-26T09:30:58;1.73;;;1.30;;
22955;SDS011;40888;48.148;11.526;2022-12-26T09:33:24;1.47;;;1.37;;
22955;SDS011;40888;48.148;11.526;2022-12-26T09:35:50;2.07;;;1.20;;
22955;SDS011;40888;48.148;11.526;2022-12-26T09:38:16;1.13;;;1.02;;
22955;SDS011;40888;48.148;11.526;2022-12-26T09:40:47;1.75;;;1.42;;
22955;SDS011;40888;48.148;11.526;2022-12-26T09:46:01;1.30;;;1.20;;
22955;SDS011;40888;48.148;11.526;2022-12-26T09:48:36;1.48;;;1.30;;
22955;SDS011;40888;48.148;11.526;2022-12-26T09:51:03;1.20;;;1.10;;
22955;SDS011;40888;48.148;11.526;2022-12-26T09:53:34;1.60;;;1.30;;
22955;SDS011;40888;48.148;11.526;2022-12-26T09:56:08;1.33;;;1.23;;
22955;SDS011;40888;48.148;11.526;2022-12-26T09:58:52;2.15;;;1.10;;
22955;SDS011;40888;48.148;11.526;2022-12-26T10:01:21;1.55;;;1.45;;
22955;SDS011;40888;48.148;11.526;2022-12-26T10:03:52;1.20;;;1.10;;
22955;SDS011;40888;48.148;11.526;2022-12-26T10:06:21;1.33;;;1.23;;
22955;SDS011;40888;48.148;11.526;2022-12-26T10:11:20;2.00;;;1.27;;
22955;SDS011;40888;48.148;11.526;2022-12-26T10:13:55;1.40;;;1.00;;
22955;SDS011;40888;48.148;11.526;2022-12-26T10:16:39;1.33;;;1.23;;
22955;SDS011;40888;48.148;11.526;2022-12-26T10:24:57;0.98;;;0.93;;
22955;SDS011;40888;48.148;11.526;2022-12-26T10:27:25;1.38;;;1.00;;
22955;SDS011;40888;48.148;11.526;2022-12-26T10:29:59;1.23;;;1.10;;
22955;SDS011;40888;48.148;11.526;2022-12-26T10:32:35;1.75;;;1.65;;
22955;SDS011;40888;48.148;11.526;2022-12-26T10:37:44;3.13;;;1.17;;
22955;SDS011;40888;48.148;11.526;2022-12-26T10:40:18;1.40;;;1.30;;
22955;SDS011;40888;48.148;11.526;2022-12-26T10:42:56;2.05;;;1.40;;
22955;SDS011;40888;48.148;11.526;2022-12-26T10:45:34;2.80;;;1.42;;
22955;SDS011;40888;48.148;11.526;2022-12-26T10:48:02;1.27;;;1.00;;
22955;SDS011;40888;48.148;11.526;2022-12-26T10:50:29;1.42;;;1.20;;
22955;SDS011;40888;48.148;11.526;2022-12-26T10:52:56;1.27;;;1.17;;
22955;SDS011;40888;48.148;11.526;2022-12-26T10:55:25;1.67;;;1.05;;
22955;SDS011;40888;48.148;11.526;2022-12-26T10:57:52;1.20;;;1.10;;
22955;SDS011;40888;48.148;11.526;2022-12-26T11:00:23;2.35;;;1.20;;
22955;SDS011;40888;48.148;11.526;2022-12-26T11:05:39;1.77;;;1.27;;
22955;SDS011;40888;48.148;11.526;2022-12-26T11:08:14;1.00;;;1.00;;
22955;SDS011;40888;48.148;11.526;2022-12-26T11:10:41;1.17;;;1.10;;
22955;SDS011;40888;48.148;11.526;2022-12-26T11:13:19;1.43;;;0.77;;
22955;SDS011;40888;48.148;11.526;2022-12-26T11:15:47;1.27;;;1.10;;
22955;SDS011;40888;48.148;11.526;2022-12-26T11:23:43;1.40;;;1.30;;
22955;SDS011;40888;48.148;11.526;2022-12-26T11:26:23;1.00;;;1.00;;
22955;SDS011;40888;48.148;11.526;2022-12-26T11:29:22;2.47;;;1.27;;
22955;SDS011;40888;48.148;11.526;2022-12-26T11:32:02;2.10;;;1.40;;
22955;SDS011;40888;48.148;11.526;2022-12-26T11:34:29;1.70;;;1.27;;
22955;SDS011;40888;48.148;11.526;2022-12-26T11:36:58;1.17;;;1.00;;
22955;SDS011;40888;48.148;11.526;2022-12-26T11:39:25;1.87;;;1.30;;
22955;SDS011;40888;48.148;11.526;2022-12-26T11:41:52;3.80;;;1.17;;
22955;SDS011;40888;48.148;11.526;2022-12-26T11:44:20;2.83;;;1.33;;
22955;SDS011;40888;48.148;11.526;2022-12-26T11:46:57;2.03;;;1.10;;
22955;SDS011;40888;48.148;11.526;2022-12-26T11:49:25;1.30;;;1.20;;
22955;SDS011;40888;48.148;11.526;2022-12-26T11:51:54;4.00;;;1.33;;
22955;SDS011;40888;48.148;11.526;2022-12-26T11:54:22;1.13;;;1.00;;
22955;SDS011;40888;48.148;11.526;2022-12-26T11:56:49;3.00;;;1.40;;
22955;SDS011;40888;48.148;11.526;2022-12-26T11:59:24;1.50;;;1.40;;
22955;SDS011;40888;48.148;11.526;2022-12-26T12:04:35;2.73;;;1.47;;
22955;SDS011;40888;48.148;11.526;2022-12-26T12:07:04;1.83;;;1.60;;
22955;SDS011;40888;48.148;11.526;2022-12-26T12:09:44;1.77;;;1.67;;
22955;SDS011;40888;48.148;11.526;2022-12-26T12:27:53;2.77;;;2.00;;
22955;SDS011;40888;48.148;11.526;2022-12-26T12:30:25;2.93;;;2.17;;
22955;SDS011;40888;48.148;11.526;2022-12-26T12:33:04;3.60;;;2.33;;
22955;SDS011;40888;48.148;11.526;2022-12-26T12:38:19;2.83;;;2.30;;
22955;SDS011;40888;48.148;11.526;2022-12-26T12:43:15;2.50;;;2.30;;
22955;SDS011;40888;48.148;11.526;2022-12-26T12:48:20;2.57;;;2.37;;
22955;SDS011;40888;48.148;11.526;2022-12-26T12:55:48;3.43;;;3.13;;
22955;SDS011;40888;48.148;11.526;2022-12-26T12:58:24;4.77;;;3.17;;
22955;SDS011;40888;48.148;11.526;2022-12-26T13:00:54;4.17;;;2.93;;
22955;SDS011;40888;48.148;11.526;2022-12-26T13:03:24;2.90;;;2.70;;
22955;SDS011;40888;48.148;11.526;2022-12-26T13:06:00;3.53;;;3.23;;
22955;SDS011;40888;48.148;11.526;2022-12-26T13:10:58;3.73;;;3.37;;
22955;SDS011;40888;48.148;11.526;2022-12-26T13:13:32;4.60;;;3.70;;
22955;SDS011;40888;48.148;11.526;2022-12-26T13:16:08;8.13;;;3.73;;
22955;SDS011;40888;48.148;11.526;2022-12-26T13:18:37;5.30;;;4.07;;
22955;SDS011;40888;48.148;11.526;2022-12-26T13:21:05;4.73;;;4.13;;
22955;SDS011;40888;48.148;11.526;2022-12-26T13:23:34;5.60;;;4.23;;
22955;SDS011;40888;48.148;11.526;2022-12-26T13:26:23;4.83;;;4.33;;
22955;SDS011;40888;48.148;11.526;2022-12-26T13:31:30;4.90;;;4.23;;
22955;SDS011;40888;48.148;11.526;2022-12-26T13:33:57;4.50;;;4.03;;
22955;SDS011;40888;48.148;11.526;2022-12-26T13:36:33;7.13;;;5.00;;
22955;SDS011;40888;48.148;11.526;2022-12-26T13:41:25;4.93;;;4.40;;
22955;SDS011;40888;48.148;11.526;2022-12-26T13:49:25;6.23;;;3.97;;
22955;SDS011;40888;48.148;11.526;2022-12-26T13:51:52;5.43;;;4.27;;
22955;SDS011;40888;48.148;11.526;2022-12-26T13:54:19;4.87;;;4.40;;
22955;SDS011;40888;48.148;11.526;2022-12-26T13:56:50;5.37;;;4.53;;
22955;SDS011;40888;48.148;11.526;2022-12-26T13:59:27;6.33;;;4.50;;
22955;SDS011;40888;48.148;11.526;2022-12-26T14:02:00;5.50;;;4.07;;
22955;SDS011;40888;48.148;11.526;2022-12-26T14:04:33;5.87;;;4.37;;
22955;SDS011;40888;48.148;11.526;2022-12-26T14:18:01;4.23;;;3.30;;
22955;SDS011;40888;48.148;11.526;2022-12-26T14:25:46;3.73;;;3.40;;
22955;SDS011;40888;48.148;11.526;2022-12-26T14:28:17;3.70;;;3.40;;
22955;SDS011;40888;48.148;11.526;2022-12-26T14:33:37;4.07;;;3.67;;
22955;SDS011;40888;48.148;11.526;2022-12-26T14:41:27;4.20;;;3.80;;
22955;SDS011;40888;48.148;11.526;2022-12-26T14:51:43;4.67;;;3.50;;
22955;SDS011;40888;48.148;11.526;2022-12-26T14:56:49;3.63;;;3.00;;
22955;SDS011;40888;48.148;11.526;2022-12-26T15:04:37;3.70;;;3.27;;
22955;SDS011;40888;48.148;11.526;2022-12-26T15:27:50;3.47;;;2.70;;
22955;SDS011;40888;48.148;11.526;2022-12-26T15:33:17;3.73;;;3.10;;
22955;SDS011;40888;48.148;11.526;2022-12-26T15:35:51;3.80;;;2.77;;
22955;SDS011;40888;48.148;11.526;2022-12-26T15:40:49;2.97;;;2.63;;
22955;SDS011;40888;48.148;11.526;2022-12-26T15:46:01;2.57;;;2.37;;
22955;SDS011;40888;48.148;11.526;2022-12-26T15:51:10;3.27;;;2.33;;
22955;SDS011;40888;48.148;11.526;2022-12-26T15:56:06;2.47;;;1.90;;
22955;SDS011;40888;48.148;11.526;2022-12-26T15:58:51;1.70;;;1.60;;
22955;SDS011;40888;48.148;11.526;2022-12-26T16:01:40;1.73;;;1.63;;
22955;SDS011;40888;48.148;11.526;2022-12-26T16:04:15;2.30;;;1.80;;
22955;SDS011;40888;48.148;11.526;2022-12-26T16:09:46;1.97;;;1.20;;
22955;SDS011;40888;48.148;11.526;2022-12-26T16:12:30;1.40;;;1.30;;
22955;SDS011;40888;48.148;11.526;2022-12-26T16:17:39;0.80;;;0.80;;
22955;SDS011;40888;48.148;11.526;2022-12-26T16:23:15;1.33;;;1.10;;
22955;SDS011;40888;48.148;11.526;2022-12-26T16:25:49;0.90;;;0.90;;
22955;SDS011;40888;48.148;11.526;2022-12-26T16:28:15;1.00;;;0.93;;
22955;SDS011;40888;48.148;11.526;2022-12-26T16:30:44;0.90;;;0.90;;
22955;SDS011;40888;48.148;11.526;2022-12-26T16:33:11;1.20;;;1.13;;
22955;SDS011;40888;48.148;11.526;2022-12-26T16:35:39;1.10;;;1.00;;
22955;SDS011;40888;48.148;11.526;2022-12-26T16:38:07;1.13;;;0.93;;
22955;SDS011;40888;48.148;11.526;2022-12-26T16:40:43;1.90;;;1.00;;
22955;SDS011;40888;48.148;11.526;2022-12-26T16:45:38;1.07;;;0.80;;
22955;SDS011;40888;48.148;11.526;2022-12-26T16:48:06;1.73;;;0.90;;
22955;SDS011;40888;48.148;11.526;2022-12-26T16:50:33;1.07;;;1.07;;
22955;SDS011;40888;48.148;11.526;2022-12-26T16:53:16;1.20;;;1.10;;
22955;SDS011;40888;48.148;11.526;2022-12-26T16:58:20;1.50;;;1.40;;
22955;SDS011;40888;48.148;11.526;2022-12-26T17:03:23;1.37;;;1.27;;
22955;SDS011;40888;48.148;11.526;2022-12-26T17:05:50;1.40;;;1.20;;
22955;SDS011;40888;48.148;11.526;2022-12-26T17:08:16;0.90;;;0.90;;
22955;SDS011;40888;48.148;11.526;2022-12-26T17:10:47;0.80;;;0.80;;
22955;SDS011;40888;48.148;11.526;2022-12-26T17:13:15;1.20;;;1.10;;
22955;SDS011;40888;48.148;11.526;2022-12-26T17:15:50;1.50;;;0.97;;
22955;SDS011;40888;48.148;11.526;2022-12-26T17:24:31;1.03;;;1.00;;
22955;SDS011;40888;48.148;11.526;2022-12-26T17:26:32;0.77;;;0.77;;
22955;SDS011;40888;48.148;11.526;2022-12-26T17:28:59;1.07;;;1.00;;
22955;SDS011;40888;48.148;11.526;2022-12-26T17:31:30;1.30;;;1.20;;
22955;SDS011;40888;48.148;11.526;2022-12-26T17:33:57;1.30;;;1.20;;
22955;SDS011;40888;48.148;11.526;2022-12-26T17:36:25;1.33;;;1.23;;
22955;SDS011;40888;48.148;11.526;2022-12-26T17:38:52;1.43;;;1.10;;
22955;SDS011;40888;48.148;11.526;2022-12-26T17:41:18;1.10;;;1.00;;
22955;SDS011;40888;48.148;11.526;2022-12-26T17:43:44;1.50;;;1.30;;
22955;SDS011;40888;48.148;11.526;2022-12-26T17:46:15;1.77;;;1.57;;
22955;SDS011;40888;48.148;11.526;2022-12-26T17:48:41;1.20;;;1.10;;
22955;SDS011;40888;48.148;11.526;2022-12-26T17:51:10;1.37;;;1.27;;
22955;SDS011;40888;48.148;11.526;2022-12-26T17:53:38;1.20;;;1.10;;
22955;SDS011;40888;48.148;11.526;2022-12-26T17:56:06;1.50;;;1.40;;
22955;SDS011;40888;48.148;11.526;2022-12-26T17:58:33;1.30;;;1.20;;
22955;SDS011;40888;48.148;11.526;2022-12-26T18:00:59;1.30;;;1.20;;